sensor_id;sensor_type;location;lat;lon;timestamp;temperature;humidity
58413;DHT22;44209;52.952;6.790;2024-02-21T00:00:51;9.60;99.90
58413;DHT22;44209;52.952;6.790;2024-02-21T00:03:17;9.60;99.90
58413;DHT22;44209;52.952;6.790;2024-02-21T00:05:42;9.60;99.90
58413;DHT22;44209;52.952;6.790;2024-02-21T00:08:08;9.60;99.90
58413;DHT22;44209;52.952;6.790;2024-02-21T00:10:34;9.70;99.90
58413;DHT22;44209;52.952;6.790;2024-02-21T00:13:00;9.70;99.90
58413;DHT22;44209;52.952;6.790;2024-02-21T00:15:26;9.70;99.90
58413;DHT22;44209;52.952;6.790;2024-02-21T00:17:52;9.70;99.90
58413;DHT22;44209;52.952;6.790;2024-02-21T00:20:18;9.60;99.90
58413;DHT22;44209;52.952;6.790;2024-02-21T00:22:44;9.70;99.90
58413;DHT22;44209;52.952;6.790;2024-02-21T00:25:10;9.70;99.90
58413;DHT22;44209;52.952;6.790;2024-02-21T00:27:35;9.70;99.90
58413;DHT22;44209;52.952;6.790;2024-02-21T00:30:02;9.70;99.90
58413;DHT22;44209;52.952;6.790;2024-02-21T00:32:27;9.70;99.90
58413;DHT22;44209;52.952;6.790;2024-02-21T00:34:53;9.80;99.90
58413;DHT22;44209;52.952;6.790;2024-02-21T00:37:19;9.70;99.90
58413;DHT22;44209;52.952;6.790;2024-02-21T00:39:44;9.70;99.90
58413;DHT22;44209;52.952;6.790;2024-02-21T00:42:10;9.80;99.90
58413;DHT22;44209;52.952;6.790;2024-02-21T00:44:36;9.70;99.90
58413;DHT22;44209;52.952;6.790;2024-02-21T00:47:01;9.70;99.90
58413;DHT22;44209;52.952;6.790;2024-02-21T00:49:27;9.70;99.90
58413;DHT22;44209;52.952;6.790;2024-02-21T00:51:53;9.80;99.90
58413;DHT22;44209;52.952;6.790;2024-02-21T00:54:18;9.80;99.90
58413;DHT22;44209;52.952;6.790;2024-02-21T00:56:44;9.80;99.90
58413;DHT22;44209;52.952;6.790;2024-02-21T00:59:10;9.80;99.90
58413;DHT22;44209;52.952;6.790;2024-02-21T01:01:35;9.80;99.90
58413;DHT22;44209;52.952;6.790;2024-02-21T01:04:01;9.70;99.90
58413;DHT22;44209;52.952;6.790;2024-02-21T01:06:27;9.70;99.90
58413;DHT22;44209;52.952;6.790;2024-02-21T01:08:52;9.80;99.90
58413;DHT22;44209;52.952;6.790;2024-02-21T01:11:18;9.70;99.90
58413;DHT22;44209;52.952;6.790;2024-02-21T01:13:44;9.70;99.90
58413;DHT22;44209;52.952;6.790;2024-02-21T01:16:10;9.60;99.90
58413;DHT22;44209;52.952;6.790;2024-02-21T01:18:39;9.60;99.90
58413;DHT22;44209;52.952;6.790;2024-02-21T01:21:08;9.60;99.90
58413;DHT22;44209;52.952;6.790;2024-02-21T01:23:35;9.60;99.90
58413;DHT22;44209;52.952;6.790;2024-02-21T01:26:02;9.50;99.90
58413;DHT22;44209;52.952;6.790;2024-02-21T01:28:27;9.50;99.90
58413;DHT22;44209;52.952;6.790;2024-02-21T01:30:53;9.50;99.90
58413;DHT22;44209;52.952;6.790;2024-02-21T01:33:19;9.50;99.90
58413;DHT22;44209;52.952;6.790;2024-02-21T01:35:44;9.50;99.90
58413;DHT22;44209;52.952;6.790;2024-02-21T01:38:12;9.50;99.90
58413;DHT22;44209;52.952;6.790;2024-02-21T01:40:38;9.50;99.90
58413;DHT22;44209;52.952;6.790;2024-02-21T01:43:03;9.40;99.90
58413;DHT22;44209;52.952;6.790;2024-02-21T01:45:29;9.50;99.90
58413;DHT22;44209;52.952;6.790;2024-02-21T01:47:55;9.50;99.90
58413;DHT22;44209;52.952;6.790;2024-02-21T01:50:22;9.50;99.90
58413;DHT22;44209;52.952;6.790;2024-02-21T01:52:49;9.50;99.90
58413;DHT22;44209;52.952;6.790;2024-02-21T01:55:16;9.40;99.90
58413;DHT22;44209;52.952;6.790;2024-02-21T01:57:43;9.40;99.90
58413;DHT22;44209;52.952;6.790;2024-02-21T02:00:12;9.40;99.90
58413;DHT22;44209;52.952;6.790;2024-02-21T02:02:39;9.40;99.90
58413;DHT22;44209;52.952;6.790;2024-02-21T02:05:07;9.30;99.90
58413;DHT22;44209;52.952;6.790;2024-02-21T02:07:33;9.30;99.90
58413;DHT22;44209;52.952;6.790;2024-02-21T02:09:59;9.30;99.90
58413;DHT22;44209;52.952;6.790;2024-02-21T02:12:25;9.20;99.90
58413;DHT22;44209;52.952;6.790;2024-02-21T02:15:01;9.20;99.90
58413;DHT22;44209;52.952;6.790;2024-02-21T02:17:30;9.20;99.90
58413;DHT22;44209;52.952;6.790;2024-02-21T02:19:56;9.20;99.90
58413;DHT22;44209;52.952;6.790;2024-02-21T02:22:32;9.10;99.90
58413;DHT22;44209;52.952;6.790;2024-02-21T02:24:59;9.10;99.90
58413;DHT22;44209;52.952;6.790;2024-02-21T02:27:24;9.10;99.90
58413;DHT22;44209;52.952;6.790;2024-02-21T02:29:50;9.10;99.90
58413;DHT22;44209;52.952;6.790;2024-02-21T02:32:16;9.10;99.90
58413;DHT22;44209;52.952;6.790;2024-02-21T02:34:42;9.10;99.90
58413;DHT22;44209;52.952;6.790;2024-02-21T02:37:07;9.00;99.90
58413;DHT22;44209;52.952;6.790;2024-02-21T02:39:33;9.00;99.90
58413;DHT22;44209;52.952;6.790;2024-02-21T02:41:59;9.00;99.90
58413;DHT22;44209;52.952;6.790;2024-02-21T02:44:25;9.00;99.90
58413;DHT22;44209;52.952;6.790;2024-02-21T02:46:51;9.00;99.90
58413;DHT22;44209;52.952;6.790;2024-02-21T02:49:16;9.00;99.90
58413;DHT22;44209;52.952;6.790;2024-02-21T02:51:42;9.00;99.90
58413;DHT22;44209;52.952;6.790;2024-02-21T02:54:09;9.00;99.90
58413;DHT22;44209;52.952;6.790;2024-02-21T02:56:35;9.00;99.90
58413;DHT22;44209;52.952;6.790;2024-02-21T02:59:00;9.00;99.90
58413;DHT22;44209;52.952;6.790;2024-02-21T03:01:26;9.00;99.90
58413;DHT22;44209;52.952;6.790;2024-02-21T03:03:53;9.00;99.90
58413;DHT22;44209;52.952;6.790;2024-02-21T03:06:19;9.00;99.90
58413;DHT22;44209;52.952;6.790;2024-02-21T03:08:45;9.00;99.90
58413;DHT22;44209;52.952;6.790;2024-02-21T03:11:10;9.00;99.90
58413;DHT22;44209;52.952;6.790;2024-02-21T03:13:36;9.00;99.90
58413;DHT22;44209;52.952;6.790;2024-02-21T03:16:02;9.00;99.90
58413;DHT22;44209;52.952;6.790;2024-02-21T03:18:28;9.00;99.90
58413;DHT22;44209;52.952;6.790;2024-02-21T03:20:54;9.00;99.90
58413;DHT22;44209;52.952;6.790;2024-02-21T03:23:19;9.00;99.90
58413;DHT22;44209;52.952;6.790;2024-02-21T03:25:45;9.00;99.90
58413;DHT22;44209;52.952;6.790;2024-02-21T03:28:11;9.00;99.90
58413;DHT22;44209;52.952;6.790;2024-02-21T03:30:37;9.00;99.90
58413;DHT22;44209;52.952;6.790;2024-02-21T03:33:03;9.00;99.90
58413;DHT22;44209;52.952;6.790;2024-02-21T03:35:28;9.00;99.90
58413;DHT22;44209;52.952;6.790;2024-02-21T03:37:54;9.00;99.90
58413;DHT22;44209;52.952;6.790;2024-02-21T03:40:20;9.10;99.90
58413;DHT22;44209;52.952;6.790;2024-02-21T03:42:46;9.00;99.90
58413;DHT22;44209;52.952;6.790;2024-02-21T03:45:11;9.00;99.90
58413;DHT22;44209;52.952;6.790;2024-02-21T03:47:37;9.00;99.90
58413;DHT22;44209;52.952;6.790;2024-02-21T03:50:04;9.00;99.90
58413;DHT22;44209;52.952;6.790;2024-02-21T03:52:30;9.00;99.90
58413;DHT22;44209;52.952;6.790;2024-02-21T03:54:56;9.00;99.90
58413;DHT22;44209;52.952;6.790;2024-02-21T03:57:21;9.00;99.90
58413;DHT22;44209;52.952;6.790;2024-02-21T03:59:50;9.00;99.90
58413;DHT22;44209;52.952;6.790;2024-02-21T04:02:17;9.00;99.90
58413;DHT22;44209;52.952;6.790;2024-02-21T04:04:44;9.00;99.90
58413;DHT22;44209;52.952;6.790;2024-02-21T04:07:14;9.00;99.90
58413;DHT22;44209;52.952;6.790;2024-02-21T04:09:40;9.00;99.90
58413;DHT22;44209;52.952;6.790;2024-02-21T04:12:07;9.00;99.90
58413;DHT22;44209;52.952;6.790;2024-02-21T04:14:33;9.00;99.90
58413;DHT22;44209;52.952;6.790;2024-02-21T04:17:00;9.00;99.90
58413;DHT22;44209;52.952;6.790;2024-02-21T04:19:25;9.00;99.90
58413;DHT22;44209;52.952;6.790;2024-02-21T04:21:51;9.00;99.90
58413;DHT22;44209;52.952;6.790;2024-02-21T04:24:17;9.00;99.90
58413;DHT22;44209;52.952;6.790;2024-02-21T04:26:42;9.00;99.90
58413;DHT22;44209;52.952;6.790;2024-02-21T04:29:09;9.00;99.90
58413;DHT22;44209;52.952;6.790;2024-02-21T04:31:35;9.00;99.90
58413;DHT22;44209;52.952;6.790;2024-02-21T04:34:01;9.00;99.90
58413;DHT22;44209;52.952;6.790;2024-02-21T04:36:28;9.00;99.90
58413;DHT22;44209;52.952;6.790;2024-02-21T04:38:53;9.00;99.90
58413;DHT22;44209;52.952;6.790;2024-02-21T04:41:19;9.00;99.90
58413;DHT22;44209;52.952;6.790;2024-02-21T04:43:46;9.00;99.90
58413;DHT22;44209;52.952;6.790;2024-02-21T04:46:15;8.90;99.90
58413;DHT22;44209;52.952;6.790;2024-02-21T04:48:41;9.00;99.90
58413;DHT22;44209;52.952;6.790;2024-02-21T04:51:06;9.00;99.90
58413;DHT22;44209;52.952;6.790;2024-02-21T04:53:33;9.00;99.90
58413;DHT22;44209;52.952;6.790;2024-02-21T04:55:59;9.00;99.90
58413;DHT22;44209;52.952;6.790;2024-02-21T04:58:25;9.00;99.90
58413;DHT22;44209;52.952;6.790;2024-02-21T05:00:51;9.00;99.90
58413;DHT22;44209;52.952;6.790;2024-02-21T05:03:18;9.00;99.90
58413;DHT22;44209;52.952;6.790;2024-02-21T05:05:44;9.00;99.90
58413;DHT22;44209;52.952;6.790;2024-02-21T05:08:09;9.00;99.90
58413;DHT22;44209;52.952;6.790;2024-02-21T05:10:36;9.00;99.90
58413;DHT22;44209;52.952;6.790;2024-02-21T05:13:01;9.00;99.90
58413;DHT22;44209;52.952;6.790;2024-02-21T05:15:27;9.00;99.90
58413;DHT22;44209;52.952;6.790;2024-02-21T05:17:53;9.00;99.90
58413;DHT22;44209;52.952;6.790;2024-02-21T05:20:18;9.00;99.90
58413;DHT22;44209;52.952;6.790;2024-02-21T05:22:44;9.00;99.90
58413;DHT22;44209;52.952;6.790;2024-02-21T05:25:10;9.00;99.90
58413;DHT22;44209;52.952;6.790;2024-02-21T05:27:36;9.00;99.90
58413;DHT22;44209;52.952;6.790;2024-02-21T05:30:03;8.90;99.90
58413;DHT22;44209;52.952;6.790;2024-02-21T05:32:28;8.90;99.90
58413;DHT22;44209;52.952;6.790;2024-02-21T05:34:55;9.00;99.90
58413;DHT22;44209;52.952;6.790;2024-02-21T05:37:20;9.00;99.90
58413;DHT22;44209;52.952;6.790;2024-02-21T05:39:46;9.00;99.90
58413;DHT22;44209;52.952;6.790;2024-02-21T05:42:12;9.00;99.90
58413;DHT22;44209;52.952;6.790;2024-02-21T05:44:37;9.00;99.90
58413;DHT22;44209;52.952;6.790;2024-02-21T05:47:03;9.00;99.90
58413;DHT22;44209;52.952;6.790;2024-02-21T05:49:29;8.90;99.90
58413;DHT22;44209;52.952;6.790;2024-02-21T05:51:55;9.00;99.90
58413;DHT22;44209;52.952;6.790;2024-02-21T05:54:21;9.00;99.90
58413;DHT22;44209;52.952;6.790;2024-02-21T05:56:46;9.00;99.90
58413;DHT22;44209;52.952;6.790;2024-02-21T05:59:12;9.00;99.90
58413;DHT22;44209;52.952;6.790;2024-02-21T06:01:38;8.90;99.90
58413;DHT22;44209;52.952;6.790;2024-02-21T06:04:04;9.00;99.90
58413;DHT22;44209;52.952;6.790;2024-02-21T06:06:30;9.00;99.90
58413;DHT22;44209;52.952;6.790;2024-02-21T06:08:56;9.00;99.90
58413;DHT22;44209;52.952;6.790;2024-02-21T06:11:22;9.00;99.90
58413;DHT22;44209;52.952;6.790;2024-02-21T06:13:48;9.00;99.90
58413;DHT22;44209;52.952;6.790;2024-02-21T06:16:13;9.00;99.90
58413;DHT22;44209;52.952;6.790;2024-02-21T06:18:39;9.00;99.90
58413;DHT22;44209;52.952;6.790;2024-02-21T06:21:05;9.00;99.90
58413;DHT22;44209;52.952;6.790;2024-02-21T06:23:31;9.00;99.90
58413;DHT22;44209;52.952;6.790;2024-02-21T06:25:57;8.90;99.90
58413;DHT22;44209;52.952;6.790;2024-02-21T06:28:22;9.00;99.90
58413;DHT22;44209;52.952;6.790;2024-02-21T06:30:48;9.00;99.90
58413;DHT22;44209;52.952;6.790;2024-02-21T06:33:14;9.00;99.90
58413;DHT22;44209;52.952;6.790;2024-02-21T06:35:39;9.00;99.90
58413;DHT22;44209;52.952;6.790;2024-02-21T06:38:07;8.90;99.90
58413;DHT22;44209;52.952;6.790;2024-02-21T06:40:33;9.00;99.90
58413;DHT22;44209;52.952;6.790;2024-02-21T06:43:04;9.00;99.90
58413;DHT22;44209;52.952;6.790;2024-02-21T06:45:30;8.90;99.90
58413;DHT22;44209;52.952;6.790;2024-02-21T06:47:55;8.90;99.90
58413;DHT22;44209;52.952;6.790;2024-02-21T06:50:21;8.90;99.90
58413;DHT22;44209;52.952;6.790;2024-02-21T06:52:47;9.00;99.90
58413;DHT22;44209;52.952;6.790;2024-02-21T06:55:12;9.00;99.90
58413;DHT22;44209;52.952;6.790;2024-02-21T06:57:38;9.00;99.90
58413;DHT22;44209;52.952;6.790;2024-02-21T07:00:04;9.00;99.90
58413;DHT22;44209;52.952;6.790;2024-02-21T07:02:33;9.00;99.90
58413;DHT22;44209;52.952;6.790;2024-02-21T07:04:59;9.00;99.90
58413;DHT22;44209;52.952;6.790;2024-02-21T07:07:25;9.00;99.90
58413;DHT22;44209;52.952;6.790;2024-02-21T07:09:51;9.00;99.90
58413;DHT22;44209;52.952;6.790;2024-02-21T07:12:17;9.00;99.90
58413;DHT22;44209;52.952;6.790;2024-02-21T07:14:42;9.00;99.90
58413;DHT22;44209;52.952;6.790;2024-02-21T07:17:08;9.00;99.90
58413;DHT22;44209;52.952;6.790;2024-02-21T07:19:34;9.00;99.90
58413;DHT22;44209;52.952;6.790;2024-02-21T07:22:01;9.00;99.90
58413;DHT22;44209;52.952;6.790;2024-02-21T07:24:26;9.00;99.90
58413;DHT22;44209;52.952;6.790;2024-02-21T07:26:52;9.00;99.90
58413;DHT22;44209;52.952;6.790;2024-02-21T07:29:18;9.00;99.90
58413;DHT22;44209;52.952;6.790;2024-02-21T07:31:44;9.00;99.90
58413;DHT22;44209;52.952;6.790;2024-02-21T07:34:10;9.00;99.90
58413;DHT22;44209;52.952;6.790;2024-02-21T07:36:36;9.00;99.90
58413;DHT22;44209;52.952;6.790;2024-02-21T07:39:03;9.00;99.90
58413;DHT22;44209;52.952;6.790;2024-02-21T07:41:32;9.00;99.90
58413;DHT22;44209;52.952;6.790;2024-02-21T07:43:59;9.00;99.90
58413;DHT22;44209;52.952;6.790;2024-02-21T07:46:25;9.00;99.90
58413;DHT22;44209;52.952;6.790;2024-02-21T07:48:50;9.00;99.90
58413;DHT22;44209;52.952;6.790;2024-02-21T07:51:16;9.00;99.90
58413;DHT22;44209;52.952;6.790;2024-02-21T07:53:44;9.00;99.90
58413;DHT22;44209;52.952;6.790;2024-02-21T07:56:14;9.00;99.90
58413;DHT22;44209;52.952;6.790;2024-02-21T07:58:41;9.00;99.90
58413;DHT22;44209;52.952;6.790;2024-02-21T08:01:07;8.90;99.90
58413;DHT22;44209;52.952;6.790;2024-02-21T08:03:33;8.90;99.90
58413;DHT22;44209;52.952;6.790;2024-02-21T08:05:58;8.90;99.90
58413;DHT22;44209;52.952;6.790;2024-02-21T08:08:24;8.90;99.90
58413;DHT22;44209;52.952;6.790;2024-02-21T08:10:50;8.90;99.90
58413;DHT22;44209;52.952;6.790;2024-02-21T08:13:16;8.90;99.90
58413;DHT22;44209;52.952;6.790;2024-02-21T08:15:42;8.90;99.90
58413;DHT22;44209;52.952;6.790;2024-02-21T08:18:08;8.90;99.90
58413;DHT22;44209;52.952;6.790;2024-02-21T08:20:34;8.90;99.90
58413;DHT22;44209;52.952;6.790;2024-02-21T08:23:00;8.90;99.90
58413;DHT22;44209;52.952;6.790;2024-02-21T08:25:26;8.90;99.90
58413;DHT22;44209;52.952;6.790;2024-02-21T08:27:54;8.80;99.90
58413;DHT22;44209;52.952;6.790;2024-02-21T08:30:20;8.80;99.90
58413;DHT22;44209;52.952;6.790;2024-02-21T08:32:45;8.90;99.90
58413;DHT22;44209;52.952;6.790;2024-02-21T08:35:11;8.90;99.90
58413;DHT22;44209;52.952;6.790;2024-02-21T08:37:38;8.90;99.90
58413;DHT22;44209;52.952;6.790;2024-02-21T08:40:04;8.90;99.90
58413;DHT22;44209;52.952;6.790;2024-02-21T08:42:35;8.90;99.90
58413;DHT22;44209;52.952;6.790;2024-02-21T08:45:02;8.90;99.90
58413;DHT22;44209;52.952;6.790;2024-02-21T08:47:27;8.90;99.90
58413;DHT22;44209;52.952;6.790;2024-02-21T08:49:53;8.90;99.90
58413;DHT22;44209;52.952;6.790;2024-02-21T08:52:19;8.90;99.90
58413;DHT22;44209;52.952;6.790;2024-02-21T08:54:45;8.90;99.90
58413;DHT22;44209;52.952;6.790;2024-02-21T08:57:10;8.90;99.90
58413;DHT22;44209;52.952;6.790;2024-02-21T08:59:36;8.90;99.90
58413;DHT22;44209;52.952;6.790;2024-02-21T09:02:01;8.90;99.90
58413;DHT22;44209;52.952;6.790;2024-02-21T09:04:29;8.90;99.90
58413;DHT22;44209;52.952;6.790;2024-02-21T09:06:55;8.80;99.90
58413;DHT22;44209;52.952;6.790;2024-02-21T09:09:20;8.80;99.90
58413;DHT22;44209;52.952;6.790;2024-02-21T09:11:46;8.90;99.90
58413;DHT22;44209;52.952;6.790;2024-02-21T09:14:12;8.90;99.90
58413;DHT22;44209;52.952;6.790;2024-02-21T09:16:38;8.90;99.90
58413;DHT22;44209;52.952;6.790;2024-02-21T09:19:03;8.90;99.90
58413;DHT22;44209;52.952;6.790;2024-02-21T09:21:29;8.90;99.90
58413;DHT22;44209;52.952;6.790;2024-02-21T09:23:55;8.90;99.90
58413;DHT22;44209;52.952;6.790;2024-02-21T09:26:20;9.00;99.90
58413;DHT22;44209;52.952;6.790;2024-02-21T09:28:46;9.00;99.90
58413;DHT22;44209;52.952;6.790;2024-02-21T09:31:12;9.00;99.90
58413;DHT22;44209;52.952;6.790;2024-02-21T09:33:38;9.00;99.90
58413;DHT22;44209;52.952;6.790;2024-02-21T09:36:05;9.00;99.90
58413;DHT22;44209;52.952;6.790;2024-02-21T09:38:31;9.00;99.90
58413;DHT22;44209;52.952;6.790;2024-02-21T09:41:18;9.10;99.90
58413;DHT22;44209;52.952;6.790;2024-02-21T09:43:44;9.10;99.90
58413;DHT22;44209;52.952;6.790;2024-02-21T09:46:17;9.10;99.90
58413;DHT22;44209;52.952;6.790;2024-02-21T09:51:15;9.20;99.90
58413;DHT22;44209;52.952;6.790;2024-02-21T09:53:43;9.20;99.90
58413;DHT22;44209;52.952;6.790;2024-02-21T09:56:10;9.20;99.90
58413;DHT22;44209;52.952;6.790;2024-02-21T09:58:36;9.20;99.90
58413;DHT22;44209;52.952;6.790;2024-02-21T10:01:02;9.30;99.90
58413;DHT22;44209;52.952;6.790;2024-02-21T10:03:35;9.30;99.90
58413;DHT22;44209;52.952;6.790;2024-02-21T10:06:01;9.30;99.90
58413;DHT22;44209;52.952;6.790;2024-02-21T10:08:26;9.30;99.90
58413;DHT22;44209;52.952;6.790;2024-02-21T10:10:52;9.40;99.90
58413;DHT22;44209;52.952;6.790;2024-02-21T10:13:28;9.40;99.90
58413;DHT22;44209;52.952;6.790;2024-02-21T10:16:20;9.40;99.90
58413;DHT22;44209;52.952;6.790;2024-02-21T10:18:47;9.40;99.90
58413;DHT22;44209;52.952;6.790;2024-02-21T10:21:12;9.50;99.90
58413;DHT22;44209;52.952;6.790;2024-02-21T10:24:05;9.50;99.90
58413;DHT22;44209;52.952;6.790;2024-02-21T10:26:30;9.50;99.90
58413;DHT22;44209;52.952;6.790;2024-02-21T10:28:56;9.50;99.90
58413;DHT22;44209;52.952;6.790;2024-02-21T10:31:26;9.50;99.90
58413;DHT22;44209;52.952;6.790;2024-02-21T10:33:59;9.50;99.90
58413;DHT22;44209;52.952;6.790;2024-02-21T10:36:29;9.50;99.90
58413;DHT22;44209;52.952;6.790;2024-02-21T10:38:55;9.60;99.90
58413;DHT22;44209;52.952;6.790;2024-02-21T10:41:21;9.60;99.90
58413;DHT22;44209;52.952;6.790;2024-02-21T10:43:54;9.60;99.90
58413;DHT22;44209;52.952;6.790;2024-02-21T10:46:21;9.60;99.90
58413;DHT22;44209;52.952;6.790;2024-02-21T10:48:56;9.60;99.90
58413;DHT22;44209;52.952;6.790;2024-02-21T10:51:27;9.70;99.90
58413;DHT22;44209;52.952;6.790;2024-02-21T10:54:33;9.70;99.90
58413;DHT22;44209;52.952;6.790;2024-02-21T10:57:02;9.70;99.90
58413;DHT22;44209;52.952;6.790;2024-02-21T10:59:30;9.70;99.90
58413;DHT22;44209;52.952;6.790;2024-02-21T11:01:57;9.80;99.90
58413;DHT22;44209;52.952;6.790;2024-02-21T11:04:24;9.80;99.90
58413;DHT22;44209;52.952;6.790;2024-02-21T11:06:51;9.90;99.90
58413;DHT22;44209;52.952;6.790;2024-02-21T11:09:17;10.00;99.90
58413;DHT22;44209;52.952;6.790;2024-02-21T11:11:45;9.90;99.90
58413;DHT22;44209;52.952;6.790;2024-02-21T11:14:18;10.00;99.90
58413;DHT22;44209;52.952;6.790;2024-02-21T11:16:44;10.00;99.90
58413;DHT22;44209;52.952;6.790;2024-02-21T11:19:24;10.00;99.90
58413;DHT22;44209;52.952;6.790;2024-02-21T11:21:52;10.00;99.90
58413;DHT22;44209;52.952;6.790;2024-02-21T11:24:33;10.00;99.90
58413;DHT22;44209;52.952;6.790;2024-02-21T11:27:12;9.80;99.90
58413;DHT22;44209;52.952;6.790;2024-02-21T11:29:46;9.90;99.90
58413;DHT22;44209;52.952;6.790;2024-02-21T11:32:19;9.90;99.90
58413;DHT22;44209;52.952;6.790;2024-02-21T11:35:01;9.80;99.90
58413;DHT22;44209;52.952;6.790;2024-02-21T11:37:32;9.80;99.90
58413;DHT22;44209;52.952;6.790;2024-02-21T11:40:04;9.80;99.90
58413;DHT22;44209;52.952;6.790;2024-02-21T11:42:32;9.80;99.90
58413;DHT22;44209;52.952;6.790;2024-02-21T11:45:00;9.80;99.90
58413;DHT22;44209;52.952;6.790;2024-02-21T11:47:28;9.80;99.90
58413;DHT22;44209;52.952;6.790;2024-02-21T11:49:54;9.80;99.90
58413;DHT22;44209;52.952;6.790;2024-02-21T11:52:25;9.90;99.90
58413;DHT22;44209;52.952;6.790;2024-02-21T11:54:51;9.90;99.90
58413;DHT22;44209;52.952;6.790;2024-02-21T11:57:18;9.90;99.90
58413;DHT22;44209;52.952;6.790;2024-02-21T11:59:47;9.90;99.90
58413;DHT22;44209;52.952;6.790;2024-02-21T12:02:14;9.90;99.90
58413;DHT22;44209;52.952;6.790;2024-02-21T12:04:40;9.90;99.90
58413;DHT22;44209;52.952;6.790;2024-02-21T12:07:06;9.90;99.90
58413;DHT22;44209;52.952;6.790;2024-02-21T12:09:34;9.90;99.90
58413;DHT22;44209;52.952;6.790;2024-02-21T12:12:04;9.90;99.90
58413;DHT22;44209;52.952;6.790;2024-02-21T12:14:32;9.90;99.90
58413;DHT22;44209;52.952;6.790;2024-02-21T12:16:59;9.90;99.90
58413;DHT22;44209;52.952;6.790;2024-02-21T12:19:25;9.90;99.90
58413;DHT22;44209;52.952;6.790;2024-02-21T12:21:51;9.90;99.90
58413;DHT22;44209;52.952;6.790;2024-02-21T12:26:47;10.00;99.90
58413;DHT22;44209;52.952;6.790;2024-02-21T12:29:13;10.00;99.90
58413;DHT22;44209;52.952;6.790;2024-02-21T12:31:38;10.00;99.90
58413;DHT22;44209;52.952;6.790;2024-02-21T12:34:04;10.00;99.90
58413;DHT22;44209;52.952;6.790;2024-02-21T12:36:33;10.00;99.90
58413;DHT22;44209;52.952;6.790;2024-02-21T12:38:59;10.00;99.90
58413;DHT22;44209;52.952;6.790;2024-02-21T12:41:27;10.00;99.90
58413;DHT22;44209;52.952;6.790;2024-02-21T12:43:53;10.00;99.90
58413;DHT22;44209;52.952;6.790;2024-02-21T12:46:19;10.10;99.90
58413;DHT22;44209;52.952;6.790;2024-02-21T12:48:45;10.20;99.90
58413;DHT22;44209;52.952;6.790;2024-02-21T12:51:10;10.20;99.90
58413;DHT22;44209;52.952;6.790;2024-02-21T12:53:36;10.20;99.90
58413;DHT22;44209;52.952;6.790;2024-02-21T12:56:02;10.20;99.90
58413;DHT22;44209;52.952;6.790;2024-02-21T12:58:30;10.10;99.90
58413;DHT22;44209;52.952;6.790;2024-02-21T13:00:57;10.10;99.90
58413;DHT22;44209;52.952;6.790;2024-02-21T13:03:22;10.10;99.90
58413;DHT22;44209;52.952;6.790;2024-02-21T13:05:48;10.10;99.90
58413;DHT22;44209;52.952;6.790;2024-02-21T13:08:14;10.00;99.90
58413;DHT22;44209;52.952;6.790;2024-02-21T13:10:40;10.00;99.90
58413;DHT22;44209;52.952;6.790;2024-02-21T13:13:05;10.00;99.90
58413;DHT22;44209;52.952;6.790;2024-02-21T13:15:31;9.90;99.90
58413;DHT22;44209;52.952;6.790;2024-02-21T13:17:57;9.90;99.90
58413;DHT22;44209;52.952;6.790;2024-02-21T13:20:26;10.00;99.90
58413;DHT22;44209;52.952;6.790;2024-02-21T13:22:52;10.00;99.90
58413;DHT22;44209;52.952;6.790;2024-02-21T13:25:18;10.10;99.90
58413;DHT22;44209;52.952;6.790;2024-02-21T13:27:46;10.20;99.90
58413;DHT22;44209;52.952;6.790;2024-02-21T13:30:12;10.20;99.90
58413;DHT22;44209;52.952;6.790;2024-02-21T13:32:44;10.20;99.90
58413;DHT22;44209;52.952;6.790;2024-02-21T13:35:12;10.20;99.90
58413;DHT22;44209;52.952;6.790;2024-02-21T13:37:38;10.20;99.90
58413;DHT22;44209;52.952;6.790;2024-02-21T13:40:05;10.20;99.90
58413;DHT22;44209;52.952;6.790;2024-02-21T13:42:31;10.20;99.90
58413;DHT22;44209;52.952;6.790;2024-02-21T13:44:57;10.20;99.90
58413;DHT22;44209;52.952;6.790;2024-02-21T13:47:23;10.20;99.90
58413;DHT22;44209;52.952;6.790;2024-02-21T13:49:48;10.30;99.90
58413;DHT22;44209;52.952;6.790;2024-02-21T13:52:14;10.30;99.90
58413;DHT22;44209;52.952;6.790;2024-02-21T13:54:40;10.30;99.90
58413;DHT22;44209;52.952;6.790;2024-02-21T13:57:07;10.30;99.90
58413;DHT22;44209;52.952;6.790;2024-02-21T13:59:33;10.20;99.90
58413;DHT22;44209;52.952;6.790;2024-02-21T14:01:59;10.20;99.90
58413;DHT22;44209;52.952;6.790;2024-02-21T14:04:25;10.20;99.90
58413;DHT22;44209;52.952;6.790;2024-02-21T14:06:50;10.10;99.90
58413;DHT22;44209;52.952;6.790;2024-02-21T14:09:18;10.10;99.90
58413;DHT22;44209;52.952;6.790;2024-02-21T14:11:44;10.10;99.90
58413;DHT22;44209;52.952;6.790;2024-02-21T14:14:10;10.10;99.90
58413;DHT22;44209;52.952;6.790;2024-02-21T14:16:36;10.00;99.90
58413;DHT22;44209;52.952;6.790;2024-02-21T14:19:02;9.90;99.90
58413;DHT22;44209;52.952;6.790;2024-02-21T14:21:28;9.90;99.90
58413;DHT22;44209;52.952;6.790;2024-02-21T14:23:54;9.90;99.90
58413;DHT22;44209;52.952;6.790;2024-02-21T14:26:20;9.90;99.90
58413;DHT22;44209;52.952;6.790;2024-02-21T14:28:47;9.90;99.90
58413;DHT22;44209;52.952;6.790;2024-02-21T14:31:13;9.80;99.90
58413;DHT22;44209;52.952;6.790;2024-02-21T14:33:38;9.80;99.90
58413;DHT22;44209;52.952;6.790;2024-02-21T14:36:04;9.70;99.90
58413;DHT22;44209;52.952;6.790;2024-02-21T14:38:31;9.80;99.90
58413;DHT22;44209;52.952;6.790;2024-02-21T14:40:56;9.70;99.90
58413;DHT22;44209;52.952;6.790;2024-02-21T14:43:22;9.70;99.90
58413;DHT22;44209;52.952;6.790;2024-02-21T14:45:48;9.70;99.90
58413;DHT22;44209;52.952;6.790;2024-02-21T14:48:14;9.60;99.90
58413;DHT22;44209;52.952;6.790;2024-02-21T14:50:40;9.60;99.90
58413;DHT22;44209;52.952;6.790;2024-02-21T14:53:07;9.60;99.90
58413;DHT22;44209;52.952;6.790;2024-02-21T14:55:34;9.60;99.90
58413;DHT22;44209;52.952;6.790;2024-02-21T14:57:59;9.60;99.90
58413;DHT22;44209;52.952;6.790;2024-02-21T15:00:26;9.60;99.90
58413;DHT22;44209;52.952;6.790;2024-02-21T15:02:58;9.60;99.90
58413;DHT22;44209;52.952;6.790;2024-02-21T15:05:25;9.60;99.90
58413;DHT22;44209;52.952;6.790;2024-02-21T15:07:51;9.60;99.90
58413;DHT22;44209;52.952;6.790;2024-02-21T15:10:17;9.60;99.90
58413;DHT22;44209;52.952;6.790;2024-02-21T15:12:46;9.60;99.90
58413;DHT22;44209;52.952;6.790;2024-02-21T15:15:13;9.60;99.90
58413;DHT22;44209;52.952;6.790;2024-02-21T15:17:39;9.60;99.90
58413;DHT22;44209;52.952;6.790;2024-02-21T15:20:05;9.60;99.90
58413;DHT22;44209;52.952;6.790;2024-02-21T15:22:33;9.60;99.90
58413;DHT22;44209;52.952;6.790;2024-02-21T15:24:59;9.60;99.90
58413;DHT22;44209;52.952;6.790;2024-02-21T15:27:41;9.60;99.90
58413;DHT22;44209;52.952;6.790;2024-02-21T15:30:09;9.60;99.90
58413;DHT22;44209;52.952;6.790;2024-02-21T15:32:34;9.60;99.90
58413;DHT22;44209;52.952;6.790;2024-02-21T15:35:03;9.60;99.90
58413;DHT22;44209;52.952;6.790;2024-02-21T15:37:29;9.60;99.90
58413;DHT22;44209;52.952;6.790;2024-02-21T15:39:55;9.60;99.90
58413;DHT22;44209;52.952;6.790;2024-02-21T15:42:20;9.60;99.90
58413;DHT22;44209;52.952;6.790;2024-02-21T15:44:46;9.60;99.90
58413;DHT22;44209;52.952;6.790;2024-02-21T15:47:12;9.70;99.90